ロンドン/ヒースロー の空港の天気 - METARとTAF

ロンドン・ヒースロー空港 ( EGLL / LHR ) - イギリス ロンドン
飛行場実況気象(Metar)
観測時間12/15 12:20 GMT (12/15 12:20 UTC)
風向・風速南東 8m/s
視程9000m
天気現象弱い雨
少しの雲 雲底高度 760m
全天の4割程度の雲 雲底高度 1430m
気温3℃
湿度81%
気圧1012hPa
METAREGLL 151220Z AUTO 13015KT 9000 -RA FEW025 SCT047 03/00 Q1012
過去の天気等 Google飛行場航空写真 Wunderground天気予報

過去48時間のMETAR

飛行場予報(TAF)
発表時間: 12/15 10:53 GMT (12/15 10:53 UTC)
予報対象時間: 15日12時 GMT ~ 16日18時 GMT
風向・風速南東 7m/s
視程10km以上
全天の8割程度の雲 雲底高度 760m
15日12時 GMT ~ 15日19時 GMT に一時的に
風向・風速南東 9m/s 瞬間風速 14m/s
視程7000m
天気現象
全天の8割程度の雲 雲底高度 370m
15日15時 GMT ~ 15日19時 GMT に 確率 40% で一時的に
視程3500m
天気現象強い雨
全天の8割程度の雲 雲底高度 240m
15日19時 GMT ~ 15日21時 GMT に徐々に
風向・風速南西 5m/s
15日19時 GMT ~ 15日22時 GMT に一時的に
視程3000m
天気現象弱い雨霧雨
全天の8割程度の雲 雲底高度 150m
16日0時 GMT ~ 16日3時 GMT に徐々に
視程7000m
16日3時 GMT ~ 16日11時 GMT に一時的に
視程3000m
天気現象もや
16日5時 GMT ~ 16日10時 GMT に 確率 30% で一時的に
視程400m
天気現象
16日10時 GMT ~ 16日12時 GMT に徐々に
風向・風速南南東 5m/s
視程10km以上
TAF EGLL 151053Z 1512/1618 13014KT 9999 BKN025
TEMPO 1512/1519 14018G28KT 7000 RA BKN012
PROB40 TEMPO 1515/1519 3500 +RA BKN008
BECMG 1519/1521 22010KT
TEMPO 1519/1522 3000 -RADZ BKN005
BECMG 1600/1603 7000
TEMPO 1603/1611 3000 BR
PROB30 TEMPO 1605/1610 0400 FG VV///
BECMG 1610/1612 16010KT 9999